createdAt,value
2023-03-20T00:04:10.500Z,55.30
2023-03-20T00:09:13.728Z,53.00
2023-03-20T00:14:20.298Z,54.30
2023-03-20T00:19:31.848Z,54.00
2023-03-20T00:24:34.704Z,54.60
2023-03-20T00:29:37.635Z,54.70
2023-03-20T00:34:43.709Z,52.90
2023-03-20T00:39:46.567Z,55.90
2023-03-20T00:44:54.790Z,54.70
2023-03-20T00:49:58.208Z,53.70
2023-03-20T00:55:02.664Z,53.60
2023-03-20T01:00:28.218Z,51.50
2023-03-20T01:05:31.737Z,55.50
2023-03-20T01:10:34.735Z,54.30
2023-03-20T01:15:37.880Z,50.60
2023-03-20T01:20:41.152Z,52.00
2023-03-20T01:25:43.997Z,54.90
2023-03-20T01:30:47.297Z,52.50
2023-03-20T01:35:50.869Z,54.60
2023-03-20T01:41:00.046Z,54.00
2023-03-20T01:46:24.167Z,53.60
2023-03-20T01:51:33.038Z,59.10
2023-03-20T01:57:13.070Z,53.90
2023-03-20T02:02:21.658Z,55.50
2023-03-20T02:07:24.630Z,50.90
2023-03-20T02:12:27.617Z,55.80
2023-03-20T02:17:30.605Z,53.60
2023-03-20T02:22:44.920Z,54.30
2023-03-20T02:28:15.675Z,53.30
2023-03-20T02:33:33.659Z,51.80
2023-03-20T02:38:46.033Z,54.50
2023-03-20T02:44:22.765Z,52.70
2023-03-20T02:49:41.181Z,53.40
2023-03-20T02:55:02.762Z,52.30
2023-03-20T03:00:21.105Z,52.40
2023-03-20T03:05:27.761Z,56.60
2023-03-20T03:10:34.231Z,55.00
2023-03-20T03:15:40.263Z,54.00
2023-03-20T03:20:43.222Z,52.30
2023-03-20T03:25:46.149Z,58.30
2023-03-20T03:30:49.244Z,58.10
2023-03-20T03:35:56.642Z,58.90
2023-03-20T03:41:22.781Z,59.20
2023-03-20T03:46:44.572Z,60.20
2023-03-20T03:51:50.334Z,56.50
2023-03-20T03:56:55.611Z,59.80
2023-03-20T04:01:58.563Z,55.90
2023-03-20T04:07:01.876Z,56.50
2023-03-20T04:12:05.369Z,60.00
2023-03-20T04:17:08.394Z,60.80
2023-03-20T04:22:11.226Z,60.80
2023-03-20T04:27:14.177Z,58.70
2023-03-20T04:32:17.119Z,62.80
2023-03-20T04:37:19.956Z,57.10
2023-03-20T04:42:24.803Z,61.80
2023-03-20T04:47:28.627Z,56.80
2023-03-20T04:52:31.606Z,59.00
2023-03-20T04:57:34.525Z,56.30
2023-03-20T05:02:37.797Z,58.80
2023-03-20T05:07:41.044Z,61.40
2023-03-20T05:12:44.576Z,62.60
2023-03-20T05:17:51.251Z,62.70
2023-03-20T05:22:55.972Z,59.80
2023-03-20T05:27:58.842Z,59.40
2023-03-20T05:33:01.888Z,61.60
2023-03-20T05:38:05.632Z,64.30
2023-03-20T05:43:08.887Z,63.10
2023-03-20T05:48:12.253Z,64.20
2023-03-20T05:53:15.149Z,65.60
2023-03-20T05:58:18.066Z,65.40
2023-03-20T06:03:21.216Z,66.60
2023-03-20T06:08:24.153Z,59.60
2023-03-20T06:13:27.129Z,62.20
2023-03-20T06:18:32.984Z,60.50
2023-03-20T06:23:36.378Z,61.40
2023-03-20T06:28:39.382Z,56.70
2023-03-20T06:33:42.273Z,55.30
2023-03-20T06:38:45.090Z,53.20
2023-03-20T06:43:48.291Z,56.10
2023-03-20T06:48:52.216Z,61.30
2023-03-20T06:53:55.023Z,52.60
2023-03-20T06:58:58.335Z,54.10
2023-03-20T07:04:03.557Z,52.10
2023-03-20T07:09:07.876Z,55.70
2023-03-20T07:14:10.943Z,51.60
2023-03-20T07:19:14.163Z,55.10
2023-03-20T07:24:17.106Z,52.60
2023-03-20T07:29:19.979Z,56.10
2023-03-20T07:34:22.927Z,54.30
2023-03-20T07:39:25.935Z,52.10
2023-03-20T07:44:29.309Z,53.70
2023-03-20T07:49:32.341Z,53.30
2023-03-20T07:54:35.496Z,54.40
2023-03-20T07:59:38.443Z,53.60
2023-03-20T08:04:41.776Z,48.30
2023-03-20T08:09:44.882Z,45.70
2023-03-20T08:14:48.001Z,50.40
2023-03-20T08:19:50.877Z,52.40
2023-03-20T08:24:53.728Z,48.60
2023-03-20T08:29:57.761Z,47.00
2023-03-20T08:35:00.719Z,45.60
2023-03-20T08:40:06.249Z,44.00
2023-03-20T08:45:09.833Z,49.60
2023-03-20T08:50:13.000Z,50.20
2023-03-20T08:55:16.858Z,47.80
2023-03-20T09:00:20.531Z,43.70
2023-03-20T09:05:23.569Z,43.40
2023-03-20T09:10:26.841Z,45.10
2023-03-20T09:15:38.191Z,33.80
2023-03-20T09:20:42.928Z,35.00
2023-03-20T09:25:47.573Z,29.50
2023-03-20T09:30:54.611Z,27.70
2023-03-20T09:35:57.690Z,30.80
2023-03-20T09:41:01.749Z,27.10
2023-03-20T09:46:37.679Z,26.50
2023-03-20T09:52:00.807Z,31.60
2023-03-20T09:57:05.140Z,29.30
2023-03-20T10:02:47.882Z,25.70
2023-03-20T10:07:51.914Z,21.30
2023-03-20T10:13:36.314Z,21.80
2023-03-20T10:18:43.335Z,24.00
2023-03-20T10:24:42.496Z,22.10
2023-03-20T10:29:57.901Z,27.50
2023-03-20T10:35:12.825Z,25.00
2023-03-20T10:40:38.660Z,25.40
2023-03-20T10:46:12.028Z,22.20
2023-03-20T10:51:18.328Z,21.40
2023-03-20T10:56:36.260Z,26.90
2023-03-20T11:01:39.143Z,26.10
2023-03-20T11:07:14.353Z,27.40
2023-03-20T11:12:19.852Z,31.30
2023-03-20T11:17:23.044Z,31.90
2023-03-20T11:22:26.413Z,32.10
2023-03-20T11:27:33.724Z,33.10
2023-03-20T11:32:41.144Z,38.70
2023-03-20T11:37:49.649Z,41.80
2023-03-20T11:42:57.889Z,39.50
2023-03-20T11:48:02.701Z,41.20
2023-03-20T11:53:32.705Z,38.30
2023-03-20T11:58:37.350Z,35.60
2023-03-20T12:04:13.936Z,33.40
2023-03-20T12:09:26.961Z,37.40
2023-03-20T12:14:52.386Z,33.70
2023-03-20T12:19:59.761Z,34.70
2023-03-20T12:25:20.571Z,32.50
2023-03-20T12:30:32.079Z,37.40
2023-03-20T12:35:38.390Z,34.20
2023-03-20T12:40:43.924Z,32.50
2023-03-20T12:46:00.891Z,35.30
2023-03-20T12:51:13.691Z,29.00
2023-03-20T12:56:37.786Z,34.00
2023-03-20T13:02:33.670Z,31.80
2023-03-20T13:08:08.183Z,34.60
2023-03-20T13:13:39.576Z,32.40
2023-03-20T13:19:31.458Z,33.70
2023-03-20T13:25:13.254Z,34.00
2023-03-20T13:30:35.097Z,27.80
2023-03-20T13:35:50.301Z,26.10
2023-03-20T13:40:59.848Z,22.80
2023-03-20T13:46:08.778Z,22.10
2023-03-20T13:51:35.806Z,25.70
2023-03-20T13:56:59.015Z,28.70
2023-03-20T14:02:07.841Z,31.80
2023-03-20T14:07:37.324Z,35.00
2023-03-20T14:12:40.378Z,38.20
2023-03-20T14:17:45.411Z,40.80
2023-03-20T14:22:49.198Z,37.20
2023-03-20T14:28:15.746Z,42.90
2023-03-20T14:33:19.583Z,36.50
2023-03-20T14:38:26.007Z,33.60
2023-03-20T14:43:41.756Z,34.00
2023-03-20T14:48:49.429Z,31.20
2023-03-20T14:54:21.286Z,33.80
2023-03-20T14:59:24.192Z,30.40
2023-03-20T15:04:53.484Z,29.10
2023-03-20T15:09:59.660Z,28.50
2023-03-20T15:15:06.343Z,30.10
2023-03-20T15:20:17.891Z,29.60
2023-03-20T15:25:22.604Z,21.00
2023-03-20T15:30:28.513Z,22.70
2023-03-20T15:35:31.538Z,18.50
2023-03-20T15:40:50.056Z,21.60
2023-03-20T15:46:14.334Z,20.20
2023-03-20T15:51:18.947Z,18.60
2023-03-20T15:56:26.033Z,19.10
2023-03-20T16:01:28.995Z,20.50
2023-03-20T16:06:31.865Z,14.70
2023-03-20T16:11:40.482Z,12.40
2023-03-20T16:16:43.851Z,11.50
2023-03-20T16:21:58.932Z,8.30
2023-03-20T16:27:08.444Z,11.10
2023-03-20T16:32:40.349Z,14.80
2023-03-20T16:37:55.121Z,12.00
2023-03-20T16:43:14.491Z,16.60
2023-03-20T16:48:25.474Z,15.50
2023-03-20T16:53:31.911Z,16.80
2023-03-20T16:58:36.899Z,19.40
2023-03-20T17:03:52.392Z,18.00
2023-03-20T17:09:01.589Z,16.80
2023-03-20T17:14:04.526Z,18.10
2023-03-20T17:19:16.020Z,16.80
2023-03-20T17:24:19.167Z,18.60
2023-03-20T17:29:22.122Z,18.10
2023-03-20T17:34:25.387Z,25.60
2023-03-20T17:39:28.531Z,25.80
2023-03-20T17:44:32.108Z,32.30
2023-03-20T17:49:35.240Z,31.10
2023-03-20T17:54:38.256Z,30.80
2023-03-20T17:59:41.247Z,30.30
2023-03-20T18:04:47.200Z,41.90
2023-03-20T18:09:50.257Z,33.80
2023-03-20T18:14:53.441Z,31.60
2023-03-20T18:19:56.548Z,31.00
2023-03-20T18:25:00.500Z,30.60
2023-03-20T18:30:04.007Z,30.00
2023-03-20T18:35:07.569Z,34.90
2023-03-20T18:40:36.056Z,37.00
2023-03-20T18:45:40.069Z,32.40
2023-03-20T18:50:43.674Z,32.80
2023-03-20T18:55:47.152Z,34.40
2023-03-20T19:00:50.622Z,38.70
2023-03-20T19:05:55.712Z,36.40
2023-03-20T19:11:00.880Z,35.60
2023-03-20T19:16:04.118Z,35.00
2023-03-20T19:21:07.149Z,32.20
2023-03-20T19:26:16.634Z,30.60
2023-03-20T19:31:19.706Z,30.60
2023-03-20T19:36:31.687Z,31.90
2023-03-20T19:41:34.844Z,35.00
2023-03-20T19:46:41.768Z,33.90
2023-03-20T19:51:45.296Z,34.80
2023-03-20T19:56:48.968Z,37.70
2023-03-20T20:01:53.975Z,38.00
2023-03-20T20:07:26.276Z,37.80
2023-03-20T20:12:19.741Z,36.80
2023-03-20T20:17:24.737Z,40.70
2023-03-20T20:22:27.999Z,38.90
2023-03-20T20:27:31.594Z,41.00
2023-03-20T20:32:35.878Z,38.90
2023-03-20T20:38:27.066Z,46.60
2023-03-20T20:43:10.096Z,53.80
2023-03-20T20:48:13.570Z,54.50
2023-03-20T20:53:16.814Z,54.00
2023-03-20T20:58:21.895Z,48.60
2023-03-20T21:03:24.782Z,49.90
2023-03-20T21:08:27.856Z,47.80
2023-03-20T21:13:31.057Z,46.20
2023-03-20T21:18:34.485Z,46.70
2023-03-20T21:23:37.566Z,40.50
2023-03-20T21:28:40.516Z,40.30
2023-03-20T21:33:43.337Z,39.90
2023-03-20T21:39:06.703Z,30.80
2023-03-20T21:44:16.636Z,35.00
2023-03-20T22:17:25.955Z,33.10
2023-03-20T22:48:46.581Z,30.80
2023-03-20T22:53:51.487Z,33.30
2023-03-20T22:58:54.285Z,32.30
2023-03-20T23:03:57.130Z,33.10
2023-03-20T23:09:08.848Z,30.90
2023-03-20T23:14:21.311Z,34.50
2023-03-20T23:19:26.516Z,36.60
2023-03-20T23:24:29.986Z,36.70
2023-03-20T23:29:34.712Z,35.30
2023-03-20T23:34:37.542Z,36.00
2023-03-20T23:39:40.913Z,38.30
2023-03-20T23:44:53.421Z,40.30
2023-03-20T23:49:58.224Z,36.10
2023-03-20T23:55:01.099Z,39.40
